Time;durP1;ratioP1;P1;durP2;ratioP2;P2;SDS_P1;SDS_P2;PMS_P1;PMS_P2;Temp;Humidity;BMP_temperature;BMP_pressure;BME280_temperature;BME280_humidity;BME280_pressure;Samples;Min_cycle;Max_cycle;Signal;HPM_P1;HPM_P2
2021/11/06 00:00:57;;;;;;;;;;;;;;;4.01;86.46;97647.81;5073448;28;20419;-76
2021/11/06 00:03:23;;;;;;;;;;;;;;;3.97;86.32;97659.44;5073144;28;20350;-76
2021/11/06 00:05:49;;;;;;;;;;;;;;;3.93;86.24;97658.13;5073028;28;20077;-76
2021/11/06 00:08:15;;;;;;;;;;;;;;;3.86;86.07;97658.72;5073207;28;19993;-76
2021/11/06 00:10:41;;;;;;;;;;;;;;;3.82;85.98;97659.97;5073226;28;19958;-77
2021/11/06 00:13:07;;;;;;;;;;;;;;;3.78;86.10;97658.63;5073318;28;19959;-76
2021/11/06 00:15:33;;;;;;;;;;;;;;;3.74;85.71;97659.03;5073174;28;20016;-76
2021/11/06 00:17:59;;;;;;;;;;;;;;;3.70;85.80;97660.31;5073565;28;19953;-76
2021/11/06 00:20:25;;;;;;;;;;;;;;;3.62;85.57;97656.63;5073206;28;19965;-76
2021/11/06 00:22:51;;;;;;;;;;;;;;;3.59;85.63;97664.72;5071731;28;19953;-76
2021/11/06 00:25:17;;;;;;;;;;;;;;;3.55;85.46;97657.34;5076145;28;20164;-77
2021/11/06 00:27:44;;;;;;;;;;;;;;;3.51;85.46;97654.25;5076765;28;20493;-76
2021/11/06 00:30:11;;;;;;;;;;;;;;;3.48;85.32;97651.91;5076721;28;20326;-76
2021/11/06 00:32:38;;;;;;;;;;;;;;;3.45;85.23;97654.81;5076511;28;20323;-77
2021/11/06 00:35:04;;;;;;;;;;;;;;;3.39;85.23;97643.22;5076775;28;19956;-76
2021/11/06 00:37:30;;;;;;;;;;;;;;;3.36;85.30;97653.91;5076525;28;19962;-75
2021/11/06 00:39:56;;;;;;;;;;;;;;;3.31;85.45;97643.13;5076770;28;19999;-76
2021/11/06 00:42:22;;;;;;;;;;;;;;;3.29;85.74;97652.81;5076699;28;19952;-76
2021/11/06 00:44:48;;;;;;;;;;;;;;;3.27;85.63;97648.75;5076465;28;19957;-76
2021/11/06 00:47:14;;;;;;;;;;;;;;;3.22;85.40;97655.16;5076363;28;20419;-76
2021/11/06 00:49:40;;;;;;;;;;;;;;;3.17;85.31;97649.59;5076487;28;19954;-77
2021/11/06 00:52:07;;;;;;;;;;;;;;;3.14;85.37;97659.44;5076614;28;19955;-76
2021/11/06 00:54:33;;;;;;;;;;;;;;;3.09;85.37;97644.31;5076374;28;19985;-76
2021/11/06 00:56:59;;;;;;;;;;;;;;;3.05;85.27;97656.72;5076100;28;20318;-76
2021/11/06 00:59:25;;;;;;;;;;;;;;;3.01;85.07;97655.34;5076250;28;19978;-76
2021/11/06 01:01:51;;;;;;;;;;;;;;;2.98;85.03;97660.84;5076060;28;19955;-76
2021/11/06 01:04:18;;;;;;;;;;;;;;;2.96;84.94;97661.91;5076429;28;19950;-76
2021/11/06 01:06:43;;;;;;;;;;;;;;;2.92;84.94;97666.56;5076014;28;19973;-76
2021/11/06 01:09:09;;;;;;;;;;;;;;;2.89;85.02;97656.47;5075792;28;19960;-77
2021/11/06 01:11:35;;;;;;;;;;;;;;;2.85;85.00;97662.88;5076248;28;19994;-76
2021/11/06 01:14:02;;;;;;;;;;;;;;;2.84;85.16;97669.03;5075768;28;19961;-76
2021/11/06 01:16:28;;;;;;;;;;;;;;;2.82;85.18;97668.34;5076065;28;19957;-76
2021/11/06 01:18:54;;;;;;;;;;;;;;;2.79;84.97;97666.88;5075784;28;19951;-76
2021/11/06 01:21:20;;;;;;;;;;;;;;;2.76;85.30;97661.94;5075813;28;20055;-76
2021/11/06 01:23:46;;;;;;;;;;;;;;;2.75;85.00;97667.25;5075488;28;19957;-77
2021/11/06 01:26:12;;;;;;;;;;;;;;;2.71;85.10;97664.16;5076241;28;19974;-76
2021/11/06 01:28:38;;;;;;;;;;;;;;;2.71;84.91;97669.31;5075782;28;20359;-76
2021/11/06 01:31:04;;;;;;;;;;;;;;;2.68;84.78;97668.78;5075629;28;20006;-77
2021/11/06 01:33:30;;;;;;;;;;;;;;;2.65;84.72;97677.66;5075840;28;19981;-77
2021/11/06 01:35:56;;;;;;;;;;;;;;;2.64;84.78;97681.19;5073546;28;19969;-76
2021/11/06 01:38:23;;;;;;;;;;;;;;;2.62;85.13;97667.53;5075315;28;19953;-77
2021/11/06 01:40:48;;;;;;;;;;;;;;;2.59;85.11;97673.00;5075682;28;19960;-77
2021/11/06 01:43:15;;;;;;;;;;;;;;;2.60;84.99;97679.81;5075255;28;19948;-77
2021/11/06 01:45:41;;;;;;;;;;;;;;;2.55;84.90;97667.28;5075504;28;19967;-77
2021/11/06 01:48:07;;;;;;;;;;;;;;;2.52;85.02;97667.56;5075038;28;20334;-77
2021/11/06 01:50:33;;;;;;;;;;;;;;;2.50;84.97;97669.47;5075312;28;19961;-77
2021/11/06 01:52:59;;;;;;;;;;;;;;;2.46;84.80;97657.75;5075072;28;19958;-77
2021/11/06 01:55:25;;;;;;;;;;;;;;;2.45;84.89;97656.09;5074827;28;20426;-77
2021/11/06 01:57:52;;;;;;;;;;;;;;;2.43;85.09;97664.00;5075369;28;19966;-78
2021/11/06 02:00:28;;;;;;;;;;;;;;;2.42;85.14;97656.41;5075260;28;19960;-77
2021/11/06 02:02:54;;;;;;;;;;;;;;;2.40;85.15;97656.53;5075027;28;19953;-77
2021/11/06 02:05:20;;;;;;;;;;;;;;;2.40;85.03;97659.13;5074208;28;19966;-77
2021/11/06 02:07:46;;;;;;;;;;;;;;;2.38;84.90;97650.66;5075190;28;19988;-78
2021/11/06 02:10:13;;;;;;;;;;;;;;;2.35;84.86;97650.94;5075058;28;19956;-77
2021/11/06 02:12:39;;;;;;;;;;;;;;;2.32;84.70;97646.03;5074623;28;19958;-78
2021/11/06 02:15:06;;;;;;;;;;;;;;;2.31;84.90;97648.75;5074792;28;19951;-77
2021/11/06 02:17:32;;;;;;;;;;;;;;;2.30;84.92;97652.31;5074612;28;19952;-78
2021/11/06 02:19:58;;;;;;;;;;;;;;;2.29;85.01;97646.31;5074737;28;19960;-78
2021/11/06 02:22:24;;;;;;;;;;;;;;;2.29;85.05;97653.25;5074621;28;19953;-78
2021/11/06 02:24:50;;;;;;;;;;;;;;;2.24;85.43;97645.88;5074430;28;19959;-78
2021/11/06 02:27:20;;;;;;;;;;;;;;;2.23;85.92;97650.25;5074431;28;19973;-78
2021/11/06 02:29:46;;;;;;;;;;;;;;;2.25;86.60;97652.72;5074378;28;19962;-77
2021/11/06 02:32:12;;;;;;;;;;;;;;;2.25;87.51;97650.13;5074776;28;20422;-77
2021/11/06 02:34:38;;;;;;;;;;;;;;;2.28;87.93;97649.03;5074218;28;20012;-78
2021/11/06 02:37:04;;;;;;;;;;;;;;;2.30;88.44;97650.53;5074012;28;19956;-77
2021/11/06 02:39:30;;;;;;;;;;;;;;;2.32;88.93;97655.56;5073188;28;20285;-77
2021/11/06 02:41:57;;;;;;;;;;;;;;;2.35;89.24;97657.88;5074096;28;19951;-78
2021/11/06 02:44:23;;;;;;;;;;;;;;;2.37;89.74;97654.22;5074226;28;19954;-78
2021/11/06 02:46:49;;;;;;;;;;;;;;;2.38;89.82;97655.03;5073787;28;19974;-78
2021/11/06 02:49:15;;;;;;;;;;;;;;;2.41;89.83;97646.97;5073802;28;19974;-78
2021/11/06 02:51:40;;;;;;;;;;;;;;;2.43;89.75;97647.66;5074210;28;19955;-79
2021/11/06 02:54:06;;;;;;;;;;;;;;;2.44;90.10;97642.34;5073680;28;20023;-78
2021/11/06 02:56:32;;;;;;;;;;;;;;;2.47;90.10;97645.63;5073307;28;20322;-78
2021/11/06 02:58:59;;;;;;;;;;;;;;;2.42;90.75;97653.81;5073939;28;20003;-78
2021/11/06 03:01:25;;;;;;;;;;;;;;;2.41;91.11;97658.13;5073688;28;19952;-78
2021/11/06 03:03:51;;;;;;;;;;;;;;;2.42;91.36;97652.03;5073775;28;19956;-78
2021/11/06 03:06:17;;;;;;;;;;;;;;;2.44;91.45;97651.91;5073676;28;20002;-78
2021/11/06 03:08:44;;;;;;;;;;;;;;;2.46;91.80;97670.69;5073691;28;19963;-77
2021/11/06 03:11:10;;;;;;;;;;;;;;;2.47;92.03;97658.56;5073142;28;19960;-79
2021/11/06 03:13:36;;;;;;;;;;;;;;;2.47;91.86;97663.75;5073751;28;19948;-78
2021/11/06 03:16:02;;;;;;;;;;;;;;;2.50;92.11;97666.03;5073931;28;19955;-77
2021/11/06 03:18:28;;;;;;;;;;;;;;;2.49;91.96;97662.66;5073605;28;19968;-77
2021/11/06 03:20:54;;;;;;;;;;;;;;;2.47;92.44;97674.09;5073486;28;19949;-77
2021/11/06 03:23:20;;;;;;;;;;;;;;;2.46;92.05;97668.13;5072415;28;19963;-75
2021/11/06 03:25:46;;;;;;;;;;;;;;;2.38;91.75;97665.38;5073963;28;19961;-76
2021/11/06 03:28:12;;;;;;;;;;;;;;;2.24;91.96;97671.78;5073416;28;20328;-76
2021/11/06 03:30:38;;;;;;;;;;;;;;;2.14;92.33;97670.94;5073668;28;20125;-76
2021/11/06 03:33:03;;;;;;;;;;;;;;;2.11;93.54;97673.81;5073489;28;20004;-76
2021/11/06 03:35:29;;;;;;;;;;;;;;;2.13;93.10;97671.91;5073461;28;20066;-76
2021/11/06 03:37:55;;;;;;;;;;;;;;;2.11;92.67;97674.63;5073412;28;20053;-76
2021/11/06 03:40:21;;;;;;;;;;;;;;;2.09;93.04;97676.53;5073511;28;19957;-77
2021/11/06 03:42:47;;;;;;;;;;;;;;;2.13;93.42;97671.91;5073526;28;19952;-75
2021/11/06 03:45:14;;;;;;;;;;;;;;;2.15;92.78;97670.00;5073409;28;19983;-74
2021/11/06 03:47:40;;;;;;;;;;;;;;;2.11;92.55;97676.41;5073218;28;20455;-76
2021/11/06 03:50:07;;;;;;;;;;;;;;;2.07;92.80;97667.25;5073566;28;19961;-75
2021/11/06 03:52:33;;;;;;;;;;;;;;;2.02;92.66;97683.19;5073026;28;19951;-74
2021/11/06 03:54:59;;;;;;;;;;;;;;;1.96;92.52;97678.56;5073141;28;20003;-74
2021/11/06 03:57:25;;;;;;;;;;;;;;;1.91;93.25;97680.69;5073151;28;20038;-75
2021/11/06 03:59:51;;;;;;;;;;;;;;;1.92;93.98;97690.91;5075746;28;19946;-75
2021/11/06 04:02:17;;;;;;;;;;;;;;;1.96;94.09;97691.50;5077316;28;19953;-75
2021/11/06 04:04:43;;;;;;;;;;;;;;;1.98;93.05;97694.75;5077339;28;20025;-75
2021/11/06 04:07:09;;;;;;;;;;;;;;;1.98;91.97;97697.34;5077346;28;19973;-74
2021/11/06 04:09:35;;;;;;;;;;;;;;;1.97;92.27;97691.31;5077015;28;20006;-74
2021/11/06 04:12:01;;;;;;;;;;;;;;;1.95;91.95;97701.03;5077080;28;19981;-74
2021/11/06 04:14:27;;;;;;;;;;;;;;;1.94;91.76;97701.16;5076817;28;19952;-75
2021/11/06 04:16:53;;;;;;;;;;;;;;;1.93;91.90;97696.91;5076896;28;20047;-75
2021/11/06 04:19:19;;;;;;;;;;;;;;;1.89;91.45;97698.13;5077191;28;20452;-75
2021/11/06 04:21:45;;;;;;;;;;;;;;;1.86;90.67;97693.22;5076808;28;19952;-74
2021/11/06 04:24:11;;;;;;;;;;;;;;;1.77;91.43;97689.66;5076645;28;19959;-75
2021/11/06 04:26:37;;;;;;;;;;;;;;;1.70;91.65;97691.97;5076719;28;20047;-75
2021/11/06 04:29:03;;;;;;;;;;;;;;;1.71;92.34;97690.19;5076635;28;19952;-75
2021/11/06 04:31:29;;;;;;;;;;;;;;;1.73;92.98;97693.47;5076786;28;19974;-76
2021/11/06 04:33:54;;;;;;;;;;;;;;;1.76;92.69;97686.25;5076454;28;19949;-74
2021/11/06 04:36:20;;;;;;;;;;;;;;;1.82;93.17;97688.28;5076393;28;19995;-75
2021/11/06 04:38:46;;;;;;;;;;;;;;;1.88;93.24;97691.31;5076541;28;20428;-76
2021/11/06 04:41:12;;;;;;;;;;;;;;;1.93;93.22;97699.50;5075293;28;19953;-74
2021/11/06 04:43:39;;;;;;;;;;;;;;;1.98;92.82;97699.94;5076439;28;19958;-76
2021/11/06 04:46:05;;;;;;;;;;;;;;;2.01;92.82;97703.06;5076636;28;19958;-75
2021/11/06 04:48:31;;;;;;;;;;;;;;;2.05;92.59;97693.25;5076110;28;19977;-75
2021/11/06 04:50:57;;;;;;;;;;;;;;;2.09;92.57;97699.81;5076571;28;20352;-75
2021/11/06 04:53:23;;;;;;;;;;;;;;;2.13;92.18;97693.41;5076048;28;20019;-77
2021/11/06 04:55:49;;;;;;;;;;;;;;;2.15;92.40;97694.09;5061672;28;19965;-75
2021/11/06 04:58:15;;;;;;;;;;;;;;;2.16;92.84;97693.16;5076212;28;19990;-75
2021/11/06 05:00:41;;;;;;;;;;;;;;;2.18;92.60;97686.09;5076143;28;20311;-75
2021/11/06 05:03:07;;;;;;;;;;;;;;;2.20;92.61;97691.91;5075951;28;19990;-75
2021/11/06 05:05:33;;;;;;;;;;;;;;;2.20;92.53;97689.31;5076000;28;19976;-74
2021/11/06 05:07:59;;;;;;;;;;;;;;;2.23;92.54;97691.66;5075688;28;19977;-74
2021/11/06 05:10:25;;;;;;;;;;;;;;;2.27;92.44;97693.97;5074673;28;19958;-75
2021/11/06 05:12:50;;;;;;;;;;;;;;;2.25;92.21;97686.38;5075724;28;19960;-75
2021/11/06 05:15:17;;;;;;;;;;;;;;;2.23;92.67;97693.44;5076087;28;19954;-75
2021/11/06 05:17:43;;;;;;;;;;;;;;;2.21;93.18;97696.16;5076227;28;19952;-75
2021/11/06 05:20:09;;;;;;;;;;;;;;;2.22;93.61;97691.78;5075536;28;19958;-75
2021/11/06 05:22:36;;;;;;;;;;;;;;;2.26;93.46;97705.28;5075996;28;19948;-76
2021/11/06 05:25:04;;;;;;;;;;;;;;;2.28;93.23;97704.19;5075588;28;19948;-75
2021/11/06 05:27:31;;;;;;;;;;;;;;;2.27;93.21;97702.56;5075529;28;20344;-75
2021/11/06 05:29:58;;;;;;;;;;;;;;;2.26;93.24;97708.69;5075740;28;19959;-75
2021/11/06 05:32:25;;;;;;;;;;;;;;;2.27;93.62;97701.72;5075326;28;19952;-75
2021/11/06 05:34:51;;;;;;;;;;;;;;;2.29;93.73;97702.41;5075372;28;19965;-75
2021/11/06 05:37:17;;;;;;;;;;;;;;;2.31;93.24;97718.63;5075703;28;19960;-75
2021/11/06 05:39:43;;;;;;;;;;;;;;;2.32;93.15;97704.75;5075277;28;19960;-75
2021/11/06 05:42:09;;;;;;;;;;;;;;;2.33;92.58;97715.00;5075247;28;20004;-76
2021/11/06 05:44:35;;;;;;;;;;;;;;;2.30;92.38;97712.66;5075193;28;20030;-75
2021/11/06 05:47:01;;;;;;;;;;;;;;;2.29;92.69;97708.44;5073913;28;20028;-75
2021/11/06 05:49:27;;;;;;;;;;;;;;;2.26;92.27;97698.34;5075076;28;20337;-75
2021/11/06 05:51:53;;;;;;;;;;;;;;;2.15;92.11;97701.88;5075153;28;20043;-75
2021/11/06 05:54:19;;;;;;;;;;;;;;;2.05;92.49;97707.97;5075186;28;20033;-75
2021/11/06 05:56:44;;;;;;;;;;;;;;;1.97;92.91;97714.63;5075223;28;20026;-75
2021/11/06 05:59:10;;;;;;;;;;;;;;;1.94;93.33;97708.91;5075124;28;19998;-74
2021/11/06 06:01:36;;;;;;;;;;;;;;;1.95;93.99;97706.19;5074715;28;20007;-75
2021/11/06 06:04:02;;;;;;;;;;;;;;;1.97;94.08;97706.84;5075275;28;19956;-77
2021/11/06 06:06:28;;;;;;;;;;;;;;;2.02;94.18;97716.81;5075062;28;20143;-76
2021/11/06 06:08:54;;;;;;;;;;;;;;;1.99;93.29;97717.06;5074560;28;20337;-76
2021/11/06 06:11:20;;;;;;;;;;;;;;;1.98;92.63;97718.03;5056798;28;19995;-76
2021/11/06 06:13:46;;;;;;;;;;;;;;;1.91;92.89;97714.31;5074546;28;20377;-76
2021/11/06 06:16:12;;;;;;;;;;;;;;;1.87;93.51;97718.97;5074698;28;19955;-76
2021/11/06 06:18:38;;;;;;;;;;;;;;;1.87;93.16;97720.72;5074511;28;19991;-76
2021/11/06 06:21:03;;;;;;;;;;;;;;;1.85;92.73;97720.88;5073295;28;19956;-76
2021/11/06 06:23:29;;;;;;;;;;;;;;;1.80;93.20;97721.22;5074350;28;20331;-76
2021/11/06 06:25:55;;;;;;;;;;;;;;;1.79;93.88;97723.97;5074236;28;19959;-76
2021/11/06 06:28:21;;;;;;;;;;;;;;;1.81;94.95;97728.06;5074210;28;20371;-76
2021/11/06 06:30:47;;;;;;;;;;;;;;;1.85;94.32;97728.63;5074312;28;19963;-75
2021/11/06 06:33:13;;;;;;;;;;;;;;;1.85;94.12;97730.38;5074571;28;20406;-75
2021/11/06 06:35:39;;;;;;;;;;;;;;;1.80;93.66;97728.19;5074196;28;19968;-76
2021/11/06 06:38:05;;;;;;;;;;;;;;;1.75;94.28;97735.53;5074290;28;20369;-75
2021/11/06 06:40:31;;;;;;;;;;;;;;;1.74;94.32;97741.63;5072921;28;19959;-77
2021/11/06 06:42:57;;;;;;;;;;;;;;;1.70;94.25;97740.25;5074032;28;19951;-75
2021/11/06 06:45:23;;;;;;;;;;;;;;;1.63;94.49;97742.53;5074170;28;19962;-75
2021/11/06 06:47:49;;;;;;;;;;;;;;;1.63;95.11;97756.28;5073976;28;19968;-75
2021/11/06 06:50:15;;;;;;;;;;;;;;;1.65;94.56;97751.00;5074053;28;20332;-74
2021/11/06 06:52:41;;;;;;;;;;;;;;;1.66;95.28;97744.91;5074409;28;19954;-75
2021/11/06 06:55:08;;;;;;;;;;;;;;;1.72;95.55;97748.72;5074276;28;19979;-74
2021/11/06 06:57:34;;;;;;;;;;;;;;;1.77;95.20;97741.41;5073760;28;19969;-75
2021/11/06 07:00:00;;;;;;;;;;;;;;;1.83;94.91;97758.97;5074527;28;19953;-74
2021/11/06 07:02:27;;;;;;;;;;;;;;;1.80;94.38;97759.22;5073887;28;20016;-75
2021/11/06 07:04:52;;;;;;;;;;;;;;;1.74;94.19;97767.50;5073745;28;19958;-74
2021/11/06 07:07:18;;;;;;;;;;;;;;;1.69;92.94;97770.47;5073747;28;20375;-74
2021/11/06 07:09:44;;;;;;;;;;;;;;;1.65;94.45;97771.69;5073609;28;20402;-74
2021/11/06 07:12:10;;;;;;;;;;;;;;;1.69;94.78;97769.66;5073733;28;19951;-74
2021/11/06 07:14:36;;;;;;;;;;;;;;;1.69;94.90;97774.84;5073740;28;20369;-74
2021/11/06 07:17:02;;;;;;;;;;;;;;;1.70;95.22;97773.88;5073643;28;20311;-74
2021/11/06 07:19:28;;;;;;;;;;;;;;;1.74;95.38;97773.50;5073799;28;19955;-74
2021/11/06 07:21:54;;;;;;;;;;;;;;;1.81;95.75;97777.22;5073639;28;19961;-74
2021/11/06 07:24:20;;;;;;;;;;;;;;;1.88;95.12;97769.75;5073581;28;19964;-74
2021/11/06 07:26:46;;;;;;;;;;;;;;;1.87;93.73;97775.88;5073655;28;19956;-75
2021/11/06 07:29:12;;;;;;;;;;;;;;;1.80;93.38;97780.72;5073562;28;20335;-74
2021/11/06 07:31:38;;;;;;;;;;;;;;;1.71;93.30;97784.09;5073432;28;20081;-74
2021/11/06 07:34:04;;;;;;;;;;;;;;;1.69;93.61;97773.06;5072594;28;20312;-75
2021/11/06 07:36:30;;;;;;;;;;;;;;;1.70;93.43;97776.47;5073492;28;19960;-74
2021/11/06 07:38:56;;;;;;;;;;;;;;;1.65;93.28;97779.44;5073458;28;19964;-75
2021/11/06 07:41:22;;;;;;;;;;;;;;;1.61;92.64;97772.88;5073427;28;19961;-74
2021/11/06 07:43:48;;;;;;;;;;;;;;;1.60;93.52;97779.03;5073548;28;19953;-74
2021/11/06 07:46:14;;;;;;;;;;;;;;;1.66;93.92;97790.59;5074146;28;19956;-75
2021/11/06 07:48:41;;;;;;;;;;;;;;;1.65;93.52;97784.63;5073253;28;19970;-75
2021/11/06 07:51:06;;;;;;;;;;;;;;;1.61;92.80;97788.41;5073203;28;19959;-76
2021/11/06 07:53:32;;;;;;;;;;;;;;;1.55;93.07;97791.50;5073015;28;19980;-76
2021/11/06 07:55:59;;;;;;;;;;;;;;;1.48;93.44;97791.19;5073369;28;19959;-75
2021/11/06 07:58:25;;;;;;;;;;;;;;;1.46;93.35;97798.25;5073325;28;19946;-75
2021/11/06 08:00:51;;;;;;;;;;;;;;;1.41;93.34;97803.81;5073252;28;19997;-75
2021/11/06 08:03:16;;;;;;;;;;;;;;;1.42;93.04;97810.59;5073368;28;19953;-75
2021/11/06 08:05:43;;;;;;;;;;;;;;;1.36;91.96;97803.34;5073220;28;20021;-75
2021/11/06 08:08:09;;;;;;;;;;;;;;;1.31;91.78;97810.69;5072942;28;19968;-76
2021/11/06 08:10:35;;;;;;;;;;;;;;;1.35;92.16;97811.25;5073150;28;19994;-75
2021/11/06 08:13:04;;;;;;;;;;;;;;;1.38;92.49;97806.63;5073521;28;19990;-75
2021/11/06 08:15:31;;;;;;;;;;;;;;;1.44;93.27;97807.91;5073036;28;19955;-76
2021/11/06 08:17:57;;;;;;;;;;;;;;;1.45;91.30;97809.56;5073210;28;20334;-75
2021/11/06 08:20:23;;;;;;;;;;;;;;;1.44;91.58;97805.31;5073189;28;19951;-74
2021/11/06 08:22:50;;;;;;;;;;;;;;;1.46;91.91;97805.19;5072491;28;20411;-76
2021/11/06 08:25:16;;;;;;;;;;;;;;;1.54;92.95;97800.22;5072753;28;19954;-76
2021/11/06 08:27:43;;;;;;;;;;;;;;;1.68;92.90;97810.22;5071787;28;19966;-76
2021/11/06 08:30:09;;;;;;;;;;;;;;;1.83;93.46;97805.53;5073199;28;19956;-77
2021/11/06 08:32:35;;;;;;;;;;;;;;;1.97;93.79;97799.19;5073128;28;19951;-76
2021/11/06 08:35:01;;;;;;;;;;;;;;;2.08;92.95;97799.09;5072984;28;20008;-76
2021/11/06 08:37:27;;;;;;;;;;;;;;;2.20;92.82;97797.22;5072821;28;19955;-76
2021/11/06 08:39:53;;;;;;;;;;;;;;;2.27;91.58;97800.09;5073036;28;20391;-76
2021/11/06 08:42:19;;;;;;;;;;;;;;;2.25;90.88;97802.84;5072835;28;19960;-76
2021/11/06 08:44:45;;;;;;;;;;;;;;;2.22;91.68;97808.25;5073418;28;19963;-76
2021/11/06 08:47:11;;;;;;;;;;;;;;;2.22;92.33;97813.44;5076259;28;20045;-76
2021/11/06 08:49:37;;;;;;;;;;;;;;;2.31;92.91;97806.66;5076543;28;19959;-75
2021/11/06 08:52:03;;;;;;;;;;;;;;;2.44;92.55;97817.59;5076243;28;19949;-75
2021/11/06 08:54:29;;;;;;;;;;;;;;;2.52;91.65;97816.94;5076673;28;20437;-74
2021/11/06 08:56:55;;;;;;;;;;;;;;;2.64;96.97;97813.28;5076319;28;20431;-75
2021/11/06 08:59:21;;;;;;;;;;;;;;;2.85;97.18;97818.34;5076291;28;19954;-74
2021/11/06 09:01:49;;;;;;;;;;;;;;;2.93;92.66;97818.47;5076045;28;19957;-74
2021/11/06 09:04:16;;;;;;;;;;;;;;;2.83;92.04;97821.09;5069843;28;20447;-75
2021/11/06 09:06:42;;;;;;;;;;;;;;;2.79;92.43;97824.91;5074069;28;19952;-75
2021/11/06 09:09:09;;;;;;;;;;;;;;;2.83;95.07;97825.44;5075643;28;19976;-74
2021/11/06 09:11:36;;;;;;;;;;;;;;;3.05;99.20;97817.41;5075922;28;19949;-74
2021/11/06 09:14:02;;;;;;;;;;;;;;;3.37;99.93;97824.06;5076001;28;19956;-75
2021/11/06 09:16:28;;;;;;;;;;;;;;;3.46;92.14;97822.41;5075829;28;19957;-75
2021/11/06 09:18:54;;;;;;;;;;;;;;;3.37;90.60;97818.88;5075755;28;20416;-76
2021/11/06 09:21:23;;;;;;;;;;;;;;;3.31;90.17;97822.03;5075814;28;19955;-75
2021/11/06 09:23:50;;;;;;;;;;;;;;;3.20;89.99;97817.81;5075840;28;20324;-75
2021/11/06 09:26:17;;;;;;;;;;;;;;;3.17;90.78;97823.28;5075688;28;19950;-75
2021/11/06 09:28:43;;;;;;;;;;;;;;;3.18;91.23;97816.31;5075576;28;19970;-75
2021/11/06 09:31:12;;;;;;;;;;;;;;;3.07;90.01;97814.69;5075463;28;19961;-75
2021/11/06 09:33:39;;;;;;;;;;;;;;;2.95;90.90;97819.16;5075298;28;19966;-76
2021/11/06 09:36:05;;;;;;;;;;;;;;;2.87;91.40;97823.41;5075916;28;19952;-75
2021/11/06 09:38:31;;;;;;;;;;;;;;;2.81;93.25;97819.56;5075233;28;19946;-75
2021/11/06 09:41:04;;;;;;;;;;;;;;;2.81;92.69;97815.22;5075412;28;20002;-75
2021/11/06 09:43:30;;;;;;;;;;;;;;;2.77;91.90;97820.78;5075302;28;19959;-75
2021/11/06 09:45:59;;;;;;;;;;;;;;;2.85;93.25;97818.34;5075239;28;19951;-75
2021/11/06 09:48:26;;;;;;;;;;;;;;;2.97;93.08;97821.63;5075751;28;19972;-75
2021/11/06 09:50:56;;;;;;;;;;;;;;;3.11;93.47;97817.81;5075355;28;20267;-75
2021/11/06 09:53:23;;;;;;;;;;;;;;;3.16;91.91;97811.25;5075392;28;20310;-75
2021/11/06 09:55:51;;;;;;;;;;;;;;;3.13;92.03;97810.69;5074765;28;19957;-75
2021/11/06 09:58:17;;;;;;;;;;;;;;;3.13;92.13;97813.28;5074679;28;19950;-75
2021/11/06 10:00:43;;;;;;;;;;;;;;;3.15;93.08;97812.22;5074894;28;20420;-75
2021/11/06 10:03:09;;;;;;;;;;;;;;;3.23;93.57;97817.56;5075113;28;19991;-75
2021/11/06 10:05:48;;;;;;;;;;;;;;;3.37;93.84;97815.47;5073625;28;19966;-75
2021/11/06 10:08:22;;;;;;;;;;;;;;;3.53;94.14;97813.13;5074887;28;19966;-75
2021/11/06 10:10:49;;;;;;;;;;;;;;;3.65;93.43;97806.00;5061226;28;19965;-75
2021/11/06 10:13:15;;;;;;;;;;;;;;;3.76;92.79;97807.59;5074538;28;19951;-75
2021/11/06 10:15:46;;;;;;;;;;;;;;;3.86;93.02;97803.19;5074875;28;19965;-75
2021/11/06 10:18:19;;;;;;;;;;;;;;;3.97;91.95;97802.19;5074789;28;20422;-75
2021/11/06 10:20:47;;;;;;;;;;;;;;;4.04;91.87;97804.09;5074739;28;20434;-75
2021/11/06 10:23:13;;;;;;;;;;;;;;;4.10;91.55;97802.72;5074576;28;19959;-76
2021/11/06 10:25:40;;;;;;;;;;;;;;;4.14;91.52;97800.66;5074516;28;20050;-75
2021/11/06 10:28:08;;;;;;;;;;;;;;;4.19;91.24;97807.03;5074454;28;19967;-75
2021/11/06 10:30:38;;;;;;;;;;;;;;;4.24;91.38;97807.44;5074402;28;19957;-75
2021/11/06 10:33:05;;;;;;;;;;;;;;;4.26;90.25;97802.09;5074596;28;20337;-75
2021/11/06 10:35:32;;;;;;;;;;;;;;;4.10;90.15;97794.94;5074507;28;19962;-76
2021/11/06 10:38:01;;;;;;;;;;;;;;;4.01;91.00;97795.78;5074368;28;20401;-75
2021/11/06 10:40:31;;;;;;;;;;;;;;;4.00;91.61;97794.16;5074108;28;19965;-75
2021/11/06 10:43:00;;;;;;;;;;;;;;;3.98;91.39;97777.91;5074272;28;19963;-75
2021/11/06 10:45:28;;;;;;;;;;;;;;;4.05;91.29;97778.94;5074087;28;19952;-75
2021/11/06 10:47:54;;;;;;;;;;;;;;;4.03;90.87;97775.69;5073958;28;19956;-75
2021/11/06 10:50:38;;;;;;;;;;;;;;;3.97;92.46;97776.25;5073923;28;20038;-76
2021/11/06 10:53:05;;;;;;;;;;;;;;;4.03;92.57;97773.09;5074128;28;19964;-75
2021/11/06 10:55:34;;;;;;;;;;;;;;;4.14;93.19;97769.50;5073750;28;19969;-75
2021/11/06 10:58:02;;;;;;;;;;;;;;;4.24;92.59;97771.09;5074494;28;19960;-75
2021/11/06 11:00:28;;;;;;;;;;;;;;;4.35;92.55;97770.06;5073679;28;20023;-75
2021/11/06 11:02:54;;;;;;;;;;;;;;;4.48;92.26;97770.53;5074050;28;19960;-75
2021/11/06 11:05:40;;;;;;;;;;;;;;;4.58;92.21;97765.28;5072953;28;19958;-75
2021/11/06 11:08:07;;;;;;;;;;;;;;;4.70;92.03;97768.47;5073544;28;19969;-75
2021/11/06 11:10:33;;;;;;;;;;;;;;;4.75;91.03;97760.25;5073862;28;19962;-76
2021/11/06 11:13:25;;;;;;;;;;;;;;;4.75;90.81;97757.63;5073164;28;19949;-76
2021/11/06 11:15:52;;;;;;;;;;;;;;;4.70;89.75;97752.88;5072440;28;20417;-75
2021/11/06 11:18:28;;;;;;;;;;;;;;;4.69;90.48;97748.66;5073513;28;20324;-76
2021/11/06 11:20:54;;;;;;;;;;;;;;;4.81;90.75;97751.84;5073656;28;19959;-75
2021/11/06 11:23:22;;;;;;;;;;;;;;;4.84;90.01;97743.75;5073558;28;19978;-76
2021/11/06 11:25:48;;;;;;;;;;;;;;;4.92;89.92;97746.41;5073513;28;19963;-76
2021/11/06 11:28:14;;;;;;;;;;;;;;;5.02;90.06;97733.34;5073852;28;19976;-75
2021/11/06 11:30:41;;;;;;;;;;;;;;;5.15;90.15;97730.34;5073383;28;19974;-76
2021/11/06 11:33:08;;;;;;;;;;;;;;;5.21;89.90;97727.94;5073633;28;20325;-76
2021/11/06 11:35:34;;;;;;;;;;;;;;;5.23;89.32;97731.22;5073609;28;19964;-76
2021/11/06 11:38:00;;;;;;;;;;;;;;;5.19;88.47;97723.88;5073634;28;20454;-76
2021/11/06 11:40:31;;;;;;;;;;;;;;;5.07;88.84;97724.09;5073580;28;20040;-76
2021/11/06 11:43:15;;;;;;;;;;;;;;;5.04;90.14;97721.81;5073361;28;20322;-76
2021/11/06 11:45:57;;;;;;;;;;;;;;;5.11;91.12;97716.00;5073326;28;19960;-76
2021/11/06 11:48:25;;;;;;;;;;;;;;;5.19;91.01;97716.88;5073399;28;19976;-76
2021/11/06 11:50:57;;;;;;;;;;;;;;;5.20;89.82;97717.69;5073368;28;19951;-76
2021/11/06 11:53:24;;;;;;;;;;;;;;;5.23;90.45;97718.22;5064158;28;19993;-76
2021/11/06 11:55:51;;;;;;;;;;;;;;;5.32;90.02;97710.47;5073335;28;19962;-76
2021/11/06 11:58:21;;;;;;;;;;;;;;;5.40;89.27;97719.13;5073008;28;19946;-76
2021/11/06 12:00:52;;;;;;;;;;;;;;;5.37;88.51;97714.22;5073016;28;19948;-76
2021/11/06 12:03:39;;;;;;;;;;;;;;;5.23;88.13;97715.59;5073402;28;19954;-76
2021/11/06 12:06:23;;;;;;;;;;;;;;;5.14;88.46;97708.69;5073326;28;19951;-76
2021/11/06 12:08:50;;;;;;;;;;;;;;;5.09;88.47;97700.56;5061944;28;19971;-76
2021/11/06 12:11:18;;;;;;;;;;;;;;;5.11;89.60;97709.03;5073292;28;19966;-76
2021/11/06 12:13:49;;;;;;;;;;;;;;;5.18;89.43;97701.41;5072988;28;19955;-76
2021/11/06 12:16:16;;;;;;;;;;;;;;;5.27;89.70;97695.28;5073103;28;19959;-76
2021/11/06 12:18:56;;;;;;;;;;;;;;;5.41;89.67;97696.53;5073176;28;19956;-76
2021/11/06 12:21:25;;;;;;;;;;;;;;;5.50;89.52;97695.59;5076786;28;19962;-76
2021/11/06 12:23:51;;;;;;;;;;;;;;;5.59;89.14;97697.28;5062264;28;20328;-76
2021/11/06 12:26:19;;;;;;;;;;;;;;;5.70;88.97;97698.78;5076836;28;20044;-76
2021/11/06 12:28:45;;;;;;;;;;;;;;;5.66;87.48;97694.88;5076653;28;19975;-76
2021/11/06 12:31:30;;;;;;;;;;;;;;;5.60;87.37;97696.28;5076971;28;19963;-76
2021/11/06 12:33:58;;;;;;;;;;;;;;;5.58;87.74;97694.81;5076705;28;19958;-76
2021/11/06 12:36:24;;;;;;;;;;;;;;;5.54;87.37;97693.50;5076611;28;19968;-76
2021/11/06 12:38:51;;;;;;;;;;;;;;;5.52;88.57;97691.03;5076543;28;19961;-76
2021/11/06 12:41:34;;;;;;;;;;;;;;;5.57;88.95;97682.78;5076448;28;19952;-77
2021/11/06 12:44:00;;;;;;;;;;;;;;;5.69;88.79;97678.91;5076370;28;19956;-76
2021/11/06 12:46:31;;;;;;;;;;;;;;;5.76;88.65;97679.94;5076638;28;19957;-77
2021/11/06 12:49:00;;;;;;;;;;;;;;;5.68;88.65;97675.50;5076250;28;19970;-76
2021/11/06 12:51:52;;;;;;;;;;;;;;;5.65;88.54;97673.22;5076418;28;19966;-76
2021/11/06 12:54:20;;;;;;;;;;;;;;;5.72;88.38;97663.00;5075073;28;19981;-76
2021/11/06 12:56:54;;;;;;;;;;;;;;;5.79;88.47;97663.19;5076564;28;19967;-76